createdAt,value
2023-02-17T00:01:36.129Z,6.75
2023-02-17T00:04:04.484Z,6.82
2023-02-17T00:06:33.140Z,6.92
2023-02-17T00:09:01.900Z,6.72
2023-02-17T00:11:30.538Z,6.74
2023-02-17T00:14:00.338Z,6.72
2023-02-17T00:16:30.465Z,6.67
2023-02-17T00:19:00.833Z,6.74
2023-02-17T00:21:32.855Z,6.77
2023-02-17T00:24:01.612Z,6.72
2023-02-17T00:26:29.809Z,6.65
2023-02-17T00:28:59.118Z,6.69
2023-02-17T00:31:27.470Z,6.66
2023-02-17T00:33:57.398Z,6.77
2023-02-17T00:36:26.851Z,6.62
2023-02-17T00:38:56.641Z,6.64
2023-02-17T00:41:26.181Z,6.63
2023-02-17T00:43:54.433Z,6.80
2023-02-17T00:46:24.317Z,6.64
2023-02-17T00:48:54.077Z,6.75
2023-02-17T00:51:23.912Z,6.70
2023-02-17T00:53:52.738Z,6.81
2023-02-17T00:56:20.876Z,6.79
2023-02-17T00:58:49.110Z,6.88
2023-02-17T01:01:18.233Z,6.99
2023-02-17T01:03:46.413Z,6.86
2023-02-17T01:06:22.641Z,6.79
2023-02-17T01:08:52.458Z,6.65
2023-02-17T01:11:24.282Z,6.46
2023-02-17T01:13:52.697Z,6.43
2023-02-17T01:16:23.466Z,6.35
2023-02-17T01:18:51.775Z,6.30
2023-02-17T01:21:21.636Z,6.37
2023-02-17T01:23:50.671Z,6.39
2023-02-17T01:26:22.642Z,6.35
2023-02-17T01:28:52.716Z,6.29
2023-02-17T01:31:23.154Z,6.20
2023-02-17T01:33:51.501Z,6.17
2023-02-17T01:36:20.624Z,6.18
2023-02-17T01:38:49.211Z,6.26
2023-02-17T01:41:26.657Z,6.28
2023-02-17T01:44:23.111Z,6.29
2023-02-17T01:46:53.353Z,6.31
2023-02-17T01:49:32.398Z,6.36
2023-02-17T01:52:09.026Z,6.45
2023-02-17T01:54:42.465Z,6.36
2023-02-17T01:57:14.124Z,6.45
2023-02-17T01:59:42.823Z,6.52
2023-02-17T02:02:11.822Z,6.40
2023-02-17T02:04:46.088Z,6.42
2023-02-17T02:07:19.904Z,6.53
2023-02-17T02:09:53.012Z,6.61
2023-02-17T02:12:24.897Z,6.54
2023-02-17T02:14:55.706Z,6.59
2023-02-17T02:17:34.754Z,6.69
2023-02-17T02:20:28.740Z,6.72
2023-02-17T02:23:33.983Z,6.63
2023-02-17T02:26:44.991Z,6.56
2023-02-17T02:29:30.718Z,6.73
2023-02-17T02:32:10.829Z,6.68
2023-02-17T02:34:46.734Z,6.74
2023-02-17T02:37:18.686Z,6.87
2023-02-17T02:39:49.988Z,6.80
2023-02-17T02:42:21.140Z,6.76
2023-02-17T02:44:50.024Z,6.74
2023-02-17T02:47:46.258Z,6.74
2023-02-17T02:50:22.598Z,6.73
2023-02-17T02:53:05.934Z,6.76
2023-02-17T02:55:53.838Z,6.76
2023-02-17T02:58:28.844Z,6.76
2023-02-17T03:01:04.205Z,6.72
2023-02-17T03:03:42.313Z,6.70
2023-02-17T03:06:19.885Z,6.76
2023-02-17T03:08:53.252Z,6.66
2023-02-17T03:11:32.341Z,6.61
2023-02-17T03:14:03.525Z,6.58
2023-02-17T03:16:32.306Z,6.57
2023-02-17T03:19:01.042Z,6.50
2023-02-17T03:21:36.863Z,6.40
2023-02-17T03:24:05.978Z,6.38
2023-02-17T03:26:34.183Z,6.57
2023-02-17T03:29:02.489Z,6.45
2023-02-17T03:31:31.285Z,6.47
2023-02-17T03:34:00.291Z,6.51
2023-02-17T03:36:29.980Z,6.44
2023-02-17T03:38:59.817Z,6.51
2023-02-17T03:41:28.068Z,6.32
2023-02-17T03:43:56.540Z,6.36
2023-02-17T03:46:25.007Z,6.29
2023-02-17T03:48:53.145Z,6.24
2023-02-17T03:51:23.830Z,6.31
2023-02-17T03:53:53.062Z,6.27
2023-02-17T03:56:22.554Z,6.29
2023-02-17T03:58:50.891Z,6.28
2023-02-17T04:01:19.120Z,6.21
2023-02-17T04:03:47.308Z,6.17
2023-02-17T04:06:15.786Z,6.29
2023-02-17T04:08:43.994Z,6.31
2023-02-17T04:11:12.244Z,6.33
2023-02-17T04:13:41.736Z,6.27
2023-02-17T04:16:11.521Z,6.20
2023-02-17T04:18:40.351Z,6.12
2023-02-17T04:21:08.870Z,6.16
2023-02-17T04:23:38.471Z,6.23
2023-02-17T04:26:08.237Z,6.31
2023-02-17T04:28:39.736Z,6.31
2023-02-17T04:31:09.704Z,6.19
2023-02-17T04:33:38.573Z,6.35
2023-02-17T04:36:07.455Z,6.27
2023-02-17T04:38:36.322Z,6.33
2023-02-17T04:41:06.206Z,6.27
2023-02-17T04:43:34.630Z,6.33
2023-02-17T04:46:02.973Z,6.41
2023-02-17T04:48:32.568Z,6.33
2023-02-17T04:51:00.777Z,6.40
2023-02-17T04:53:28.911Z,6.38
2023-02-17T04:55:57.055Z,6.43
2023-02-17T04:58:25.190Z,6.47
2023-02-17T05:00:53.402Z,6.34
2023-02-17T05:03:21.697Z,6.37
2023-02-17T05:05:51.726Z,6.42
2023-02-17T05:08:19.914Z,6.34
2023-02-17T05:10:48.084Z,6.32
2023-02-17T05:13:16.237Z,6.40
2023-02-17T05:15:45.178Z,6.39
2023-02-17T05:18:13.658Z,6.40
2023-02-17T05:20:42.241Z,6.44
2023-02-17T05:23:12.036Z,6.40
2023-02-17T05:25:40.978Z,6.41
2023-02-17T05:28:09.249Z,6.42
2023-02-17T05:30:37.423Z,6.45
2023-02-17T05:33:05.612Z,6.38
2023-02-17T05:35:35.619Z,6.39
2023-02-17T05:38:03.778Z,6.45
2023-02-17T05:40:33.392Z,6.54
2023-02-17T05:43:01.599Z,6.52
2023-02-17T05:45:30.196Z,6.59
2023-02-17T05:47:58.592Z,6.55
2023-02-17T05:50:27.068Z,6.58
2023-02-17T05:53:04.032Z,6.51
2023-02-17T05:55:33.996Z,6.58
2023-02-17T05:58:02.228Z,6.62
2023-02-17T06:00:31.267Z,6.54
2023-02-17T06:02:59.477Z,6.54
2023-02-17T06:05:27.640Z,6.58
2023-02-17T06:07:56.115Z,6.66
2023-02-17T06:10:24.294Z,6.62
2023-02-17T06:12:53.830Z,6.58
2023-02-17T06:15:22.109Z,6.51
2023-02-17T06:17:50.281Z,6.60
2023-02-17T06:20:18.543Z,6.59
2023-02-17T06:22:46.899Z,6.58
2023-02-17T06:25:15.472Z,6.63
2023-02-17T06:27:44.216Z,6.64
2023-02-17T06:30:15.375Z,6.71
2023-02-17T06:32:43.568Z,6.60
2023-02-17T06:35:11.843Z,6.61
2023-02-17T06:37:40.074Z,6.68
2023-02-17T06:40:09.274Z,6.67
2023-02-17T06:42:37.524Z,6.73
2023-02-17T06:45:06.421Z,6.75
2023-02-17T06:47:36.516Z,6.77
2023-02-17T06:50:05.310Z,6.75
2023-02-17T06:52:33.973Z,6.79
2023-02-17T06:55:02.168Z,6.77
2023-02-17T06:57:30.458Z,6.76
2023-02-17T06:59:58.641Z,6.77
2023-02-17T07:02:27.344Z,6.86
2023-02-17T07:04:57.243Z,6.85
2023-02-17T07:07:25.524Z,6.88
2023-02-17T07:09:53.672Z,6.76
2023-02-17T07:12:21.828Z,6.82
2023-02-17T07:14:50.033Z,6.84
2023-02-17T07:17:18.372Z,6.87
2023-02-17T07:19:46.524Z,6.94
2023-02-17T07:22:16.011Z,6.96
2023-02-17T07:24:44.172Z,6.99
2023-02-17T07:27:12.942Z,6.97
2023-02-17T07:29:41.564Z,6.98
2023-02-17T07:32:09.828Z,6.88
2023-02-17T07:34:38.508Z,7.02
2023-02-17T07:37:06.709Z,7.05
2023-02-17T07:39:36.487Z,7.11
2023-02-17T07:42:06.197Z,7.18
2023-02-17T07:44:34.997Z,7.06
2023-02-17T07:47:03.178Z,7.27
2023-02-17T07:49:31.631Z,7.26
2023-02-17T07:52:00.720Z,7.28
2023-02-17T07:54:28.920Z,7.24
2023-02-17T07:56:58.714Z,7.17
2023-02-17T07:59:27.074Z,7.36
2023-02-17T08:01:55.379Z,7.31
2023-02-17T08:04:23.553Z,7.31
2023-02-17T08:06:51.737Z,7.34
2023-02-17T08:09:38.611Z,7.39
2023-02-17T08:12:33.505Z,7.41
2023-02-17T08:15:01.871Z,7.54
2023-02-17T08:17:30.451Z,7.59
2023-02-17T08:20:05.873Z,7.66
2023-02-17T08:22:36.616Z,7.71
2023-02-17T08:25:06.271Z,7.69
2023-02-17T08:27:42.022Z,7.76
2023-02-17T08:30:12.103Z,7.86
2023-02-17T08:32:40.483Z,7.78
2023-02-17T08:35:09.212Z,7.82
2023-02-17T08:37:37.575Z,7.76
2023-02-17T08:40:06.964Z,7.78
2023-02-17T08:42:36.624Z,7.85
2023-02-17T08:45:05.187Z,7.98
2023-02-17T08:47:33.667Z,8.03
2023-02-17T08:50:02.382Z,7.92
2023-02-17T08:52:30.642Z,8.02
2023-02-17T08:54:59.326Z,8.04
2023-02-17T08:57:28.032Z,8.25
2023-02-17T08:59:57.864Z,8.34
2023-02-17T09:02:26.204Z,8.35
2023-02-17T09:04:54.493Z,8.25
2023-02-17T09:07:23.042Z,8.43
2023-02-17T09:09:51.320Z,8.40
2023-02-17T09:12:19.509Z,8.42
2023-02-17T09:14:47.770Z,8.43
2023-02-17T09:17:17.336Z,8.44
2023-02-17T09:19:45.511Z,8.44
2023-02-17T09:22:30.597Z,8.35
2023-02-17T09:24:59.570Z,8.28
2023-02-17T09:27:27.744Z,8.27
2023-02-17T09:29:56.109Z,8.37
2023-02-17T09:32:25.828Z,8.31
2023-02-17T09:34:54.572Z,8.31
2023-02-17T09:37:23.549Z,8.31
2023-02-17T09:39:51.735Z,8.30
2023-02-17T09:42:22.761Z,8.48
2023-02-17T09:44:54.765Z,8.56
2023-02-17T09:47:27.774Z,8.50
2023-02-17T09:50:02.789Z,8.58
2023-02-17T09:52:38.798Z,8.55
2023-02-17T09:55:09.275Z,8.61
2023-02-17T09:57:43.996Z,8.62
2023-02-17T10:00:16.488Z,8.64
2023-02-17T10:02:55.089Z,8.66
2023-02-17T10:05:27.466Z,8.73
2023-02-17T10:08:03.184Z,8.62
2023-02-17T10:10:40.001Z,8.62
2023-02-17T10:13:10.423Z,8.63
2023-02-17T10:15:43.077Z,8.50
2023-02-17T10:18:18.107Z,8.40
2023-02-17T10:20:51.899Z,8.54
2023-02-17T10:23:22.282Z,8.49
2023-02-17T10:26:02.507Z,8.50
2023-02-17T10:28:45.673Z,8.53
2023-02-17T10:31:21.551Z,8.59
2023-02-17T10:33:57.230Z,8.63
2023-02-17T10:36:31.653Z,8.64
2023-02-17T10:39:05.504Z,8.70
2023-02-17T10:41:37.020Z,8.57
2023-02-17T10:44:09.998Z,8.53
2023-02-17T10:46:42.669Z,8.60
2023-02-17T10:49:19.721Z,8.60
2023-02-17T10:51:47.880Z,8.60
2023-02-17T10:54:28.787Z,8.60
2023-02-17T10:56:59.993Z,8.46
2023-02-17T10:59:31.492Z,8.55
2023-02-17T11:02:15.257Z,8.52
2023-02-17T11:04:46.779Z,8.57
2023-02-17T11:07:17.116Z,8.54
2023-02-17T11:09:50.931Z,8.48
2023-02-17T11:12:23.145Z,8.39
2023-02-17T11:14:54.343Z,8.41
2023-02-17T11:17:29.233Z,8.44
2023-02-17T11:20:03.979Z,8.50
2023-02-17T11:22:35.971Z,8.55
2023-02-17T11:25:07.236Z,8.64
2023-02-17T11:27:35.465Z,8.64
2023-02-17T11:30:15.599Z,8.74
2023-02-17T11:32:43.965Z,8.74
2023-02-17T11:35:25.377Z,8.68
2023-02-17T11:38:01.131Z,8.79
2023-02-17T11:40:31.927Z,8.78
2023-02-17T11:43:01.431Z,8.78
2023-02-17T11:45:34.419Z,8.77
2023-02-17T11:48:19.148Z,8.81
2023-02-17T11:50:53.637Z,8.78
2023-02-17T11:53:31.680Z,8.79
2023-02-17T11:56:11.322Z,8.87
2023-02-17T11:59:00.672Z,8.82
2023-02-17T12:01:42.219Z,8.85
2023-02-17T12:04:26.327Z,8.89
2023-02-17T12:07:19.016Z,8.92
2023-02-17T12:09:57.387Z,9.07
2023-02-17T12:12:37.762Z,9.05
2023-02-17T12:15:25.318Z,9.09
2023-02-17T12:18:06.579Z,9.07
2023-02-17T12:20:45.675Z,9.15
2023-02-17T12:23:32.271Z,9.20
2023-02-17T12:26:08.169Z,9.26
2023-02-17T12:29:07.873Z,9.17
2023-02-17T12:31:52.775Z,9.27
2023-02-17T12:34:26.728Z,9.33
2023-02-17T12:36:57.742Z,9.40
2023-02-17T12:39:33.273Z,9.32
2023-02-17T12:42:05.837Z,9.48
2023-02-17T12:44:40.616Z,9.45
2023-02-17T12:47:15.968Z,9.51
2023-02-17T12:49:49.163Z,9.58
2023-02-17T12:52:20.732Z,9.52
2023-02-17T12:54:55.261Z,9.66
2023-02-17T12:57:26.451Z,9.67
2023-02-17T12:59:57.548Z,9.71
2023-02-17T13:02:27.212Z,9.72
2023-02-17T13:05:01.247Z,9.80
2023-02-17T13:07:44.081Z,9.78
2023-02-17T13:10:36.206Z,9.92
2023-02-17T13:13:08.443Z,9.99
2023-02-17T13:15:39.252Z,10.05
2023-02-17T13:18:12.496Z,10.01
2023-02-17T13:20:57.158Z,10.15
2023-02-17T13:23:40.846Z,10.20
2023-02-17T13:26:38.885Z,10.33
2023-02-17T13:29:20.154Z,10.41
2023-02-17T13:31:52.349Z,10.58
2023-02-17T13:34:30.531Z,10.68
2023-02-17T13:37:00.787Z,10.68
2023-02-17T13:39:36.454Z,10.62
2023-02-17T13:42:27.465Z,10.53
2023-02-17T13:44:55.681Z,10.53
2023-02-17T13:47:30.719Z,10.54
2023-02-17T13:49:59.054Z,10.62
2023-02-17T13:52:30.328Z,10.69
2023-02-17T13:55:00.770Z,10.67
2023-02-17T13:57:32.816Z,10.77
2023-02-17T14:00:09.469Z,10.87
2023-02-17T14:02:46.574Z,10.94
2023-02-17T14:05:20.336Z,10.88
2023-02-17T14:07:49.591Z,11.05
2023-02-17T14:10:23.856Z,11.07
2023-02-17T14:12:54.379Z,11.09
2023-02-17T14:15:24.509Z,11.08
2023-02-17T14:17:52.908Z,11.06
2023-02-17T14:20:30.028Z,11.10
2023-02-17T14:23:06.750Z,11.11
2023-02-17T14:25:37.100Z,11.01
2023-02-17T14:28:19.377Z,10.99
2023-02-17T14:30:47.937Z,10.97
2023-02-17T14:33:22.629Z,11.01
2023-02-17T14:35:53.601Z,10.93
2023-02-17T14:38:24.522Z,10.89
2023-02-17T14:40:55.788Z,10.89
2023-02-17T14:43:25.569Z,10.90
2023-02-17T14:45:54.587Z,10.83
2023-02-17T14:48:23.092Z,10.82
2023-02-17T14:50:53.977Z,10.76
2023-02-17T14:53:26.469Z,10.75
2023-02-17T14:56:00.440Z,10.68
2023-02-17T14:58:30.848Z,10.65
2023-02-17T15:01:00.698Z,10.52
2023-02-17T15:03:29.102Z,10.53
2023-02-17T15:05:57.556Z,10.57
2023-02-17T15:08:34.007Z,10.51
2023-02-17T15:11:03.494Z,10.51
2023-02-17T15:13:33.772Z,10.52
2023-02-17T15:16:02.411Z,10.48
2023-02-17T15:18:30.644Z,10.42
2023-02-17T15:20:58.820Z,10.43
2023-02-17T15:23:31.519Z,10.36
2023-02-17T15:26:00.368Z,10.35
2023-02-17T15:28:28.555Z,10.34
2023-02-17T15:30:58.052Z,10.30
2023-02-17T15:33:26.225Z,10.31
2023-02-17T15:35:56.184Z,10.27
2023-02-17T15:38:27.293Z,10.26
2023-02-17T15:40:58.633Z,10.32
2023-02-17T15:46:14.731Z,10.50
2023-02-17T15:48:44.208Z,10.45
2023-02-17T15:51:15.016Z,10.42
2023-02-17T15:53:43.582Z,10.36
2023-02-17T15:56:20.386Z,10.35
2023-02-17T15:58:49.068Z,10.27
2023-02-17T16:01:28.951Z,10.30
2023-02-17T16:03:58.311Z,10.21
2023-02-17T16:06:26.975Z,10.32
2023-02-17T16:08:58.284Z,10.31
2023-02-17T16:11:26.565Z,10.31
2023-02-17T16:13:55.110Z,10.36
2023-02-17T16:16:29.541Z,10.41
2023-02-17T16:18:58.092Z,10.45
2023-02-17T16:21:26.588Z,10.40
2023-02-17T16:23:59.616Z,10.44
2023-02-17T16:26:33.632Z,10.47
2023-02-17T16:29:03.145Z,10.45
2023-02-17T16:31:35.822Z,10.43
2023-02-17T16:34:04.068Z,10.50
2023-02-17T16:36:36.021Z,10.55
2023-02-17T16:39:11.536Z,10.56
2023-02-17T16:41:39.956Z,10.68
2023-02-17T16:44:08.878Z,10.62
2023-02-17T16:46:38.955Z,10.66
2023-02-17T16:49:19.575Z,10.67
2023-02-17T16:51:48.043Z,10.58
2023-02-17T16:54:18.237Z,10.65
2023-02-17T16:56:48.998Z,10.65
2023-02-17T16:59:20.434Z,10.51
2023-02-17T17:01:53.095Z,10.52
2023-02-17T17:04:21.456Z,10.59
2023-02-17T17:06:51.639Z,10.70
2023-02-17T17:09:22.114Z,10.76
2023-02-17T17:11:50.470Z,10.72
2023-02-17T17:14:20.641Z,10.76
2023-02-17T17:16:54.815Z,10.56
2023-02-17T17:19:23.092Z,10.41
2023-02-17T17:21:51.380Z,10.39
2023-02-17T17:24:19.711Z,10.36
2023-02-17T17:26:51.569Z,10.33
2023-02-17T17:29:20.837Z,10.43
2023-02-17T17:31:49.481Z,10.48
2023-02-17T17:34:19.004Z,10.59
2023-02-17T17:36:48.700Z,10.68
2023-02-17T17:39:18.928Z,10.67
2023-02-17T17:41:47.739Z,10.83
2023-02-17T17:44:16.242Z,10.96
2023-02-17T17:46:44.704Z,11.06
2023-02-17T17:49:14.608Z,11.05
2023-02-17T17:51:44.101Z,11.12
2023-02-17T17:54:12.291Z,11.10
2023-02-17T17:56:42.964Z,11.02
2023-02-17T17:59:12.292Z,10.95
2023-02-17T18:01:40.513Z,11.02
2023-02-17T18:04:09.347Z,10.99
2023-02-17T18:06:41.422Z,10.94
2023-02-17T18:09:30.209Z,10.90
2023-02-17T18:12:03.685Z,10.86
2023-02-17T18:14:33.007Z,10.82
2023-02-17T18:17:02.123Z,10.49
2023-02-17T18:19:31.048Z,10.03
2023-02-17T18:21:59.215Z,9.66
2023-02-17T18:24:28.771Z,9.29
2023-02-17T18:26:56.952Z,8.94
2023-02-17T18:29:25.256Z,8.81
2023-02-17T18:31:53.474Z,8.73
2023-02-17T18:34:21.976Z,8.85
2023-02-17T18:36:50.368Z,8.81
2023-02-17T18:39:18.683Z,8.93
2023-02-17T18:41:48.172Z,9.02
2023-02-17T18:44:16.357Z,8.98
2023-02-17T18:46:44.676Z,8.95
2023-02-17T18:49:12.856Z,8.93
2023-02-17T18:51:41.036Z,9.07
2023-02-17T18:54:10.968Z,9.17
2023-02-17T18:56:39.544Z,9.14
2023-02-17T18:59:09.060Z,9.01
2023-02-17T19:01:40.856Z,8.99
2023-02-17T19:04:10.192Z,9.01
2023-02-17T19:06:38.327Z,8.93
2023-02-17T19:09:06.508Z,8.99
2023-02-17T19:11:35.143Z,8.93
2023-02-17T19:14:04.020Z,8.95
2023-02-17T19:16:33.774Z,8.96
2023-02-17T19:19:03.380Z,8.86
2023-02-17T19:21:31.451Z,8.94
2023-02-17T19:23:59.560Z,8.87
2023-02-17T19:26:27.704Z,8.81
2023-02-17T19:28:55.937Z,8.65
2023-02-17T19:31:24.493Z,8.91
2023-02-17T19:33:54.087Z,8.93
2023-02-17T19:36:23.599Z,8.89
2023-02-17T19:38:52.493Z,8.91
2023-02-17T19:41:20.733Z,8.95
2023-02-17T19:43:49.100Z,8.96
2023-02-17T19:46:19.806Z,8.78
2023-02-17T19:48:47.997Z,8.70
2023-02-17T19:51:17.468Z,8.69
2023-02-17T19:53:45.668Z,8.82
2023-02-17T19:56:15.703Z,8.81
2023-02-17T19:58:45.597Z,8.73
2023-02-17T20:01:15.677Z,8.64
2023-02-17T20:03:44.598Z,8.64
2023-02-17T20:06:16.604Z,8.48
2023-02-17T20:08:47.047Z,8.56
2023-02-17T20:11:16.109Z,8.52
2023-02-17T20:13:46.674Z,8.53
2023-02-17T20:16:16.514Z,8.57
2023-02-17T20:18:46.724Z,8.40
2023-02-17T20:21:17.321Z,8.33
2023-02-17T20:23:46.912Z,8.36
2023-02-17T20:26:18.598Z,8.46
2023-02-17T20:28:46.955Z,8.36
2023-02-17T20:31:15.264Z,8.42
2023-02-17T20:33:45.155Z,8.40
2023-02-17T20:36:13.442Z,8.28
2023-02-17T20:38:42.368Z,8.18
2023-02-17T20:41:16.607Z,8.24
2023-02-17T20:43:44.869Z,8.13
2023-02-17T20:46:14.841Z,8.14
2023-02-17T20:48:43.036Z,8.20
2023-02-17T20:51:11.201Z,8.08
2023-02-17T20:53:39.393Z,7.94
2023-02-17T20:56:14.022Z,7.83
2023-02-17T20:58:42.543Z,7.82
2023-02-17T21:01:11.113Z,7.84
2023-02-17T21:03:39.605Z,7.84
2023-02-17T21:06:19.985Z,7.78
2023-02-17T21:08:55.614Z,7.76
2023-02-17T21:11:26.057Z,7.73
2023-02-17T21:13:54.993Z,7.76
2023-02-17T21:16:25.719Z,7.78
2023-02-17T21:18:54.223Z,7.76
2023-02-17T21:21:22.552Z,7.81
2023-02-17T21:23:51.254Z,7.68
2023-02-17T21:26:19.496Z,7.69
2023-02-17T21:28:49.216Z,7.66
2023-02-17T21:31:18.500Z,7.66
2023-02-17T21:33:46.798Z,7.58
2023-02-17T21:36:18.448Z,7.51
2023-02-17T21:38:47.217Z,7.49
2023-02-17T21:41:17.800Z,7.53
2023-02-17T21:44:03.817Z,7.53
2023-02-17T21:46:33.686Z,7.48
2023-02-17T21:49:02.243Z,7.43
2023-02-17T21:51:30.783Z,7.47
2023-02-17T21:53:59.517Z,7.46
2023-02-17T21:56:27.952Z,7.50
2023-02-17T21:58:56.923Z,7.51
2023-02-17T22:01:26.648Z,7.47
2023-02-17T22:03:57.719Z,7.43
2023-02-17T22:06:27.841Z,7.38
2023-02-17T22:08:57.543Z,7.42
2023-02-17T22:11:27.750Z,7.40
2023-02-17T22:13:57.193Z,7.38
2023-02-17T22:16:26.117Z,7.36
2023-02-17T22:18:55.616Z,7.36
2023-02-17T22:21:24.229Z,7.29
2023-02-17T22:23:52.406Z,7.28
2023-02-17T22:26:25.979Z,7.24
2023-02-17T22:28:55.516Z,7.28
2023-02-17T22:31:26.361Z,7.26
2023-02-17T22:33:57.171Z,7.22
2023-02-17T22:36:27.314Z,7.23
2023-02-17T22:38:55.837Z,7.18
2023-02-17T22:41:26.700Z,7.23
2023-02-17T22:43:55.753Z,7.19
2023-02-17T22:46:27.053Z,7.14
2023-02-17T22:48:57.816Z,7.18
2023-02-17T22:51:28.474Z,7.09
2023-02-17T22:53:57.278Z,7.14
2023-02-17T22:56:25.490Z,7.12
2023-02-17T22:58:56.449Z,7.08
2023-02-17T23:01:26.097Z,7.06
2023-02-17T23:03:56.213Z,7.03
2023-02-17T23:06:27.843Z,6.97
2023-02-17T23:08:56.692Z,6.94
2023-02-17T23:11:40.726Z,6.99
2023-02-17T23:14:09.317Z,6.93
2023-02-17T23:16:38.574Z,6.93
2023-02-17T23:19:08.773Z,6.82
2023-02-17T23:21:37.463Z,6.83
2023-02-17T23:24:06.160Z,6.80
2023-02-17T23:26:34.345Z,6.84
2023-02-17T23:29:02.624Z,6.84
2023-02-17T23:31:30.831Z,6.82
2023-02-17T23:33:59.085Z,6.80
2023-02-17T23:36:28.664Z,6.71
2023-02-17T23:38:59.252Z,6.71
2023-02-17T23:41:28.407Z,6.72
2023-02-17T23:43:56.657Z,6.71
2023-02-17T23:46:25.175Z,6.68
2023-02-17T23:48:53.344Z,6.74
2023-02-17T23:51:21.518Z,6.82
2023-02-17T23:53:51.351Z,6.79
2023-02-17T23:56:23.263Z,6.61
2023-02-17T23:58:51.606Z,6.57
